Time;durP1;ratioP1;P1;durP2;ratioP2;P2;SDS_P1;SDS_P2;PMS_P1;PMS_P2;Temp;Humidity;BMP_temperature;BMP_pressure;BME280_temperature;BME280_humidity;BME280_pressure;Samples;Min_cycle;Max_cycle;Signal;HPM_P1;HPM_P2
2021/01/20 00:01:06;;;;;;;0.90;0.90;;;3.50;99.90;;;;;;5022907;28;20218;-80
2021/01/20 00:03:34;;;;;;;4.85;2.20;;;3.40;1.00;;;;;;5031342;28;20216;-80
2021/01/20 00:06:01;;;;;;;3.72;1.98;;;3.50;1.00;;;;;;5023332;28;20244;-81
2021/01/20 00:08:29;;;;;;;1.50;1.20;;;3.40;1.00;;;;;;5018244;28;20737;-82
2021/01/20 00:10:56;;;;;;;6.70;2.85;;;3.40;1.00;;;;;;5022946;28;20237;-82
2021/01/20 00:13:24;;;;;;;5.50;3.83;;;3.40;1.00;;;;;;5026483;28;20211;-82
2021/01/20 00:15:52;;;;;;;3.13;1.50;;;3.40;1.00;;;;;;5024533;28;20310;-81
2021/01/20 00:18:19;;;;;;;3.45;2.10;;;3.50;1.00;;;;;;5031826;28;20218;-81
2021/01/20 00:20:46;;;;;;;1.83;1.70;;;3.50;1.00;;;;;;5030773;28;20217;-82
2021/01/20 00:23:14;;;;;;;2.70;1.80;;;3.40;99.90;;;;;;5028442;28;20215;-81
2021/01/20 00:25:41;;;;;;;2.00;1.63;;;3.40;99.90;;;;;;5025289;28;20414;-81
2021/01/20 00:28:09;;;;;;;2.17;1.98;;;3.40;99.90;;;;;;5028628;28;20254;-81
2021/01/20 00:30:37;;;;;;;2.33;1.63;;;3.40;99.90;;;;;;5023626;28;20224;-81
2021/01/20 00:33:04;;;;;;;2.10;1.30;;;3.40;99.90;;;;;;5032167;28;20578;-80
2021/01/20 00:35:32;;;;;;;1.52;1.13;;;3.40;1.00;;;;;;5026785;28;20281;-79
2021/01/20 00:37:59;;;;;;;2.20;1.40;;;3.30;1.00;;;;;;5026106;28;20227;-81
2021/01/20 00:40:27;;;;;;;2.63;1.80;;;3.40;1.00;;;;;;5027584;28;20708;-80
2021/01/20 00:42:54;;;;;;;1.65;1.45;;;3.50;99.90;;;;;;5028129;28;20250;-79
2021/01/20 00:45:22;;;;;;;0.93;0.93;;;3.60;99.90;;;;;;5018556;28;20246;-80
2021/01/20 00:47:50;;;;;;;1.73;1.33;;;3.60;99.90;;;;;;5021921;28;20223;-80
2021/01/20 00:50:17;;;;;;;2.25;1.23;;;3.70;5.20;;;;;;5030680;28;20215;-80
2021/01/20 00:52:45;;;;;;;1.30;1.20;;;3.60;1.00;;;;;;5022853;28;20230;-80
2021/01/20 00:55:14;;;;;;;1.70;1.20;;;3.50;99.90;;;;;;5022087;28;20334;-79
2021/01/20 00:57:42;;;;;;;1.42;1.33;;;3.40;1.00;;;;;;5026987;28;20721;-79
2021/01/20 01:00:11;;;;;;;1.48;1.27;;;3.50;99.90;;;;;;5031375;28;20212;-79
2021/01/20 01:02:38;;;;;;;1.23;1.00;;;3.40;99.90;;;;;;5031477;28;20213;-79
2021/01/20 01:05:08;;;;;;;0.98;0.90;;;3.30;1.00;;;;;;5024976;28;20317;-80
2021/01/20 01:07:35;;;;;;;1.20;1.10;;;3.20;99.90;;;;;;5029847;28;20224;-80
2021/01/20 01:10:03;;;;;;;2.40;1.10;;;3.10;99.90;;;;;;5027013;28;20205;-79
2021/01/20 01:12:30;;;;;;;1.77;1.20;;;3.10;1.00;;;;;;5031135;28;20589;-81
2021/01/20 01:14:58;;;;;;;1.27;1.17;;;3.10;99.90;;;;;;5031805;28;20240;-79
2021/01/20 01:17:25;;;;;;;1.95;1.30;;;3.20;1.00;;;;;;5032025;28;20578;-79
2021/01/20 01:19:52;;;;;;;2.80;1.10;;;3.30;1.00;;;;;;5028132;28;20220;-79
2021/01/20 01:22:20;;;;;;;3.13;1.20;;;3.30;1.00;;;;;;5027290;28;20233;-79
2021/01/20 01:24:47;;;;;;;1.80;1.05;;;3.30;99.90;;;;;;5018873;28;20840;-78
2021/01/20 01:27:15;;;;;;;1.00;0.90;;;3.40;99.90;;;;;;5028948;28;20707;-80
2021/01/20 01:29:42;;;;;;;0.82;0.82;;;3.30;99.90;;;;;;5029735;28;20231;-80
2021/01/20 01:32:09;;;;;;;1.10;1.00;;;3.30;99.90;;;;;;5031096;28;20721;-80
2021/01/20 01:34:37;;;;;;;1.15;1.00;;;3.20;95.20;;;;;;5026136;28;20216;-79
2021/01/20 01:37:04;;;;;;;1.95;1.20;;;3.20;99.90;;;;;;5027419;28;20305;-80
2021/01/20 01:39:34;;;;;;;1.85;1.08;;;3.20;1.00;;;;;;5025821;28;20318;-79
2021/01/20 01:42:03;;;;;;;2.75;1.00;;;3.30;99.90;;;;;;5024734;28;20215;-80
2021/01/20 01:44:30;;;;;;;2.25;0.90;;;3.40;99.90;;;;;;5025393;28;20224;-78
2021/01/20 01:46:58;;;;;;;1.30;1.10;;;3.40;99.90;;;;;;5030807;28;20563;-80
2021/01/20 01:49:25;;;;;;;1.25;0.90;;;3.30;99.90;;;;;;5025772;28;20228;-80
2021/01/20 01:51:53;;;;;;;1.02;0.93;;;3.40;99.90;;;;;;5019785;28;20229;-80
2021/01/20 01:54:21;;;;;;;0.90;0.90;;;3.40;3.00;;;;;;5027342;28;20305;-78
2021/01/20 01:56:50;;;;;;;1.08;0.98;;;3.40;99.90;;;;;;5028637;28;20243;-79
2021/01/20 01:59:18;;;;;;;1.27;1.00;;;3.40;99.90;;;;;;5021516;28;20215;-79
2021/01/20 02:01:46;;;;;;;0.90;0.90;;;3.40;70.40;;;;;;5032560;28;20217;-79
2021/01/20 02:04:13;;;;;;;1.20;0.90;;;3.40;99.90;;;;;;5025758;28;20219;-78
2021/01/20 02:06:41;;;;;;;1.15;1.05;;;3.40;1.00;;;;;;5021062;28;20232;-79
2021/01/20 02:09:08;;;;;;;1.13;1.02;;;3.50;1.00;;;;;;5024941;28;20234;-79
2021/01/20 02:11:47;;;;;;;1.10;1.00;;;3.50;1.00;;;;;;5029322;28;20219;-79
2021/01/20 02:14:28;;;;;;;1.90;1.20;;;3.50;1.00;;;;;;5024811;28;20222;-79
2021/01/20 02:17:04;;;;;;;1.10;1.00;;;3.60;99.90;;;;;;5025241;28;20235;-79
2021/01/20 02:19:55;;;;;;;1.10;1.00;;;3.60;99.90;;;;;;5023254;28;20547;-78
2021/01/20 02:22:27;;;;;;;1.50;1.40;;;3.60;99.90;;;;;;5022389;28;20207;-78
2021/01/20 02:25:05;;;;;;;0.90;0.90;;;3.50;99.90;;;;;;5023347;28;20244;-77
2021/01/20 02:27:44;;;;;;;1.00;0.90;;;3.60;99.90;;;;;;5015385;28;20212;-79
2021/01/20 02:30:14;;;;;;;0.80;0.80;;;3.60;99.90;;;;;;5020385;28;20240;-79
2021/01/20 02:32:43;;;;;;;1.20;1.10;;;3.60;99.90;;;;;;5025301;28;20262;-80
2021/01/20 02:35:12;;;;;;;1.20;1.00;;;3.50;1.00;;;;;;5029272;28;20785;-79
2021/01/20 02:37:40;;;;;;;1.08;0.98;;;3.50;99.90;;;;;;5025325;28;20748;-79
2021/01/20 02:40:09;;;;;;;2.22;1.13;;;3.50;99.90;;;;;;5020777;28;20255;-80
2021/01/20 02:42:42;;;;;;;1.33;1.23;;;3.50;1.00;;;;;;5024969;28;20567;-79
2021/01/20 02:45:10;;;;;;;1.55;1.35;;;3.50;1.00;;;;;;5023330;28;20266;-79
2021/01/20 02:47:38;;;;;;;1.10;1.00;;;3.60;1.00;;;;;;5024835;28;20209;-80
2021/01/20 02:50:08;;;;;;;1.92;1.20;;;3.60;1.00;;;;;;5027975;28;20209;-79
2021/01/20 02:52:46;;;;;;;1.95;1.10;;;3.60;99.90;;;;;;5027883;28;20559;-79
2021/01/20 02:55:15;;;;;;;1.63;1.00;;;3.70;99.90;;;;;;5024847;28;20795;-79
2021/01/20 02:57:44;;;;;;;1.58;1.42;;;3.70;99.90;;;;;;5016202;28;20609;-79
2021/01/20 03:00:13;;;;;;;1.20;1.10;;;3.70;99.90;;;;;;5025546;28;20209;-79
2021/01/20 03:02:47;;;;;;;1.08;1.08;;;3.60;99.90;;;;;;5027672;28;20280;-79
2021/01/20 03:05:17;;;;;;;1.00;0.90;;;3.60;1.00;;;;;;5026516;28;20313;-81
2021/01/20 03:07:45;;;;;;;0.90;0.90;;;3.60;1.00;;;;;;5021020;28;20220;-80
2021/01/20 03:10:14;;;;;;;1.73;1.00;;;3.70;1.00;;;;;;5023427;28;20239;-79
2021/01/20 03:12:43;;;;;;;1.55;1.20;;;3.70;1.00;;;;;;5031995;28;20215;-79
2021/01/20 03:15:17;;;;;;;1.17;1.08;;;3.70;1.00;;;;;;5022009;28;20327;-79
2021/01/20 03:17:45;;;;;;;1.35;1.02;;;3.60;99.90;;;;;;5025810;28;20638;-78
2021/01/20 03:20:13;;;;;;;1.20;1.10;;;3.70;99.90;;;;;;5025085;28;20219;-80
2021/01/20 03:22:40;;;;;;;1.15;1.02;;;3.70;99.90;;;;;;5025441;28;20318;-80
2021/01/20 03:25:09;;;;;;;1.00;1.00;;;3.70;99.90;;;;;;5028662;28;20645;-79
2021/01/20 03:27:36;;;;;;;1.73;1.02;;;3.80;99.90;;;;;;5018564;28;20313;-79
2021/01/20 03:30:05;;;;;;;1.20;1.08;;;3.80;94.70;;;;;;5026784;28;20226;-79
2021/01/20 03:32:33;;;;;;;1.25;1.00;;;3.80;1.00;;;;;;5018519;28;20219;-78
2021/01/20 03:35:01;;;;;;;1.20;1.10;;;3.90;1.00;;;;;;5024500;28;20237;-80
2021/01/20 03:37:29;;;;;;;1.55;1.42;;;3.90;1.00;;;;;;5020679;28;20296;-79
2021/01/20 03:39:56;;;;;;;1.83;1.30;;;3.80;1.00;;;;;;5024588;28;20214;-79
2021/01/20 03:42:23;;;;;;;1.88;1.40;;;3.80;1.00;;;;;;5022867;28;20715;-78
2021/01/20 03:44:51;;;;;;;1.20;1.10;;;3.80;1.00;;;;;;5016588;28;20310;-79
2021/01/20 03:47:18;;;;;;;3.35;2.05;;;3.80;1.00;;;;;;5022769;28;20243;-79
2021/01/20 03:49:45;;;;;;;1.63;1.20;;;3.80;99.90;;;;;;5019175;28;20648;-79
2021/01/20 03:52:17;;;;;;;1.63;1.52;;;3.70;1.00;;;;;;5025025;28;20221;-79
2021/01/20 03:54:44;;;;;;;1.90;1.33;;;3.60;1.00;;;;;;5024229;28;20238;-79
2021/01/20 03:57:12;;;;;;;1.45;1.30;;;3.60;99.90;;;;;;5023612;28;20209;-79
2021/01/20 03:59:39;;;;;;;6.45;1.55;;;3.50;1.00;;;;;;5020673;28;20235;-79
2021/01/20 04:02:07;;;;;;;1.30;1.20;;;3.50;1.00;;;;;;5028294;28;20265;-79
2021/01/20 04:04:34;;;;;;;1.45;1.30;;;3.50;11.90;;;;;;5017462;28;20320;-79
2021/01/20 04:07:02;;;;;;;1.88;1.10;;;3.40;57.60;;;;;;5021615;28;20524;-79
2021/01/20 04:09:30;;;;;;;1.08;0.98;;;3.50;93.00;;;;;;5023291;28;20228;-78
2021/01/20 04:11:59;;;;;;;1.42;1.00;;;3.50;99.90;;;;;;5027969;28;20219;-79
2021/01/20 04:14:26;;;;;;;1.30;1.00;;;3.60;1.00;;;;;;5025665;28;20358;-79
2021/01/20 04:16:54;;;;;;;2.35;0.95;;;3.50;1.00;;;;;;5027630;28;20308;-79
2021/01/20 04:19:21;;;;;;;1.38;1.20;;;3.50;1.00;;;;;;5015913;28;20814;-78
2021/01/20 04:21:49;;;;;;;1.33;1.10;;;3.40;99.90;;;;;;5028336;28;20218;-79
2021/01/20 04:24:16;;;;;;;1.35;1.15;;;3.40;99.90;;;;;;5019126;28;20227;-79
2021/01/20 04:26:45;;;;;;;1.20;1.10;;;3.60;98.20;;;;;;5025438;28;20263;-78
2021/01/20 04:29:12;;;;;;;1.20;1.10;;;3.60;1.00;;;;;;5023770;28;20406;-78
2021/01/20 04:31:40;;;;;;;1.52;1.20;;;3.50;1.00;;;;;;5026484;28;20716;-79
2021/01/20 04:34:07;;;;;;;1.45;1.35;;;3.50;1.00;;;;;;5016108;28;20227;-79
2021/01/20 04:36:35;;;;;;;1.50;1.20;;;3.50;1.00;;;;;;5019283;28;21111;-79
2021/01/20 04:39:03;;;;;;;1.20;1.00;;;3.40;1.00;;;;;;5021791;28;20228;-77
2021/01/20 04:41:32;;;;;;;1.98;1.10;;;3.50;1.00;;;;;;5023302;28;20222;-78
2021/01/20 04:44:01;;;;;;;1.30;0.90;;;3.50;1.00;;;;;;5021850;28;20229;-79
2021/01/20 04:46:31;;;;;;;0.98;0.98;;;3.50;99.90;;;;;;5023260;28;20717;-80
2021/01/20 04:49:01;;;;;;;1.63;1.38;;;3.50;99.90;;;;;;5025750;28;20332;-80
2021/01/20 04:51:32;;;;;;;1.48;1.30;;;3.70;99.90;;;;;;5037146;28;20305;-79
2021/01/20 04:54:00;;;;;;;2.03;1.00;;;3.70;1.00;;;;;;5018728;28;20207;-79
2021/01/20 04:56:28;;;;;;;1.40;1.20;;;3.60;28.80;;;;;;5016125;28;20237;-78
2021/01/20 04:58:55;;;;;;;1.10;1.00;;;3.60;1.00;;;;;;5033065;28;20215;-77
2021/01/20 05:01:24;;;;;;;1.92;1.25;;;3.60;1.00;;;;;;5015223;28;20234;-78
2021/01/20 05:03:53;;;;;;;1.50;1.40;;;3.70;1.00;;;;;;5023169;28;20220;-78
2021/01/20 05:06:20;;;;;;;2.63;1.30;;;3.70;1.00;;;;;;5015334;28;20231;-79
2021/01/20 05:08:48;;;;;;;1.33;1.15;;;3.70;99.90;;;;;;5027429;28;20611;-79
2021/01/20 05:11:17;;;;;;;1.55;1.20;;;3.60;1.00;;;;;;5022944;28;20222;-79
2021/01/20 05:13:44;;;;;;;1.38;1.27;;;3.70;99.90;;;;;;5026290;28;20353;-79
2021/01/20 05:16:26;;;;;;;1.88;1.40;;;3.70;99.90;;;;;;5019990;28;20224;-79
2021/01/20 05:18:53;;;;;;;1.30;1.20;;;3.60;99.90;;;;;;5025429;28;20213;-79
2021/01/20 05:21:21;;;;;;;2.00;1.20;;;3.50;1.00;;;;;;5018312;28;20215;-80
2021/01/20 05:23:48;;;;;;;1.65;1.55;;;3.60;1.00;;;;;;5013154;28;20226;-78
2021/01/20 05:26:15;;;;;;;1.90;1.35;;;3.60;99.90;;;;;;5017020;28;20259;-78
2021/01/20 05:28:43;;;;;;;1.50;1.40;;;3.70;1.00;;;;;;5022978;28;20243;-79
2021/01/20 05:31:26;;;;;;;1.48;1.30;;;3.70;1.00;;;;;;5015901;28;20223;-80
2021/01/20 05:33:53;;;;;;;2.10;1.67;;;3.90;1.00;;;;;;5026920;28;20216;-75
2021/01/20 05:36:21;;;;;;;1.85;1.20;;;3.90;1.00;;;;;;5016745;28;20308;-75
2021/01/20 05:38:49;;;;;;;1.70;1.35;;;3.90;99.90;;;;;;5017630;28;20212;-79
2021/01/20 05:41:21;;;;;;;1.50;1.40;;;3.80;99.90;;;;;;5016242;28;20482;-80
2021/01/20 05:43:49;;;;;;;1.25;1.15;;;3.80;99.90;;;;;;5027111;28;20242;-78
2021/01/20 05:46:30;;;;;;;1.38;1.20;;;3.90;99.90;;;;;;5019843;28;20699;-79
2021/01/20 05:48:58;;;;;;;1.95;1.50;;;3.90;99.90;;;;;;5026353;28;20474;-79
2021/01/20 05:51:26;;;;;;;2.00;1.43;;;4.00;99.90;;;;;;5036924;28;20491;-77
2021/01/20 05:53:55;;;;;;;2.55;1.38;;;4.00;1.00;;;;;;5026360;28;20482;-79
2021/01/20 05:56:26;;;;;;;1.63;1.50;;;4.10;8.60;;;;;;5014341;28;20244;-78
2021/01/20 05:58:53;;;;;;;1.40;1.25;;;4.10;1.00;;;;;;5017782;28;20213;-78
2021/01/20 06:01:21;;;;;;;2.25;1.88;;;4.00;1.00;;;;;;5022993;28;20223;-77
2021/01/20 06:03:50;;;;;;;2.33;1.30;;;3.90;1.00;;;;;;5015651;28;20209;-78
2021/01/20 06:06:18;;;;;;;1.45;1.35;;;3.80;69.40;;;;;;5020288;28;20239;-78
2021/01/20 06:08:46;;;;;;;1.80;1.30;;;3.80;99.90;;;;;;5018559;28;20218;-79
2021/01/20 06:11:14;;;;;;;2.55;1.50;;;3.90;99.90;;;;;;5031223;28;20229;-78
2021/01/20 06:13:41;;;;;;;3.85;1.58;;;4.00;99.90;;;;;;5026663;28;20312;-79
2021/01/20 06:16:14;;;;;;;1.80;1.70;;;4.10;99.90;;;;;;5028825;28;20233;-78
2021/01/20 06:18:48;;;;;;;2.10;1.50;;;4.20;1.00;;;;;;5020584;28;20205;-79
2021/01/20 06:21:18;;;;;;;2.15;1.90;;;4.10;1.00;;;;;;5019421;28;20342;-80
2021/01/20 06:23:53;;;;;;;1.40;1.30;;;4.20;1.00;;;;;;5024321;28;20289;-77
2021/01/20 06:26:25;;;;;;;2.35;1.40;;;4.30;1.00;;;;;;5017926;28;20229;-78
2021/01/20 06:28:56;;;;;;;2.00;1.50;;;4.40;1.00;;;;;;5018073;28;20533;-76
2021/01/20 06:31:26;;;;;;;1.30;1.20;;;4.40;1.00;;;;;;5017945;28;20218;-79
2021/01/20 06:33:53;;;;;;;2.03;1.33;;;4.40;1.00;;;;;;5020084;28;20687;-79
2021/01/20 06:36:31;;;;;;;1.55;1.38;;;4.40;1.00;;;;;;5023984;28;20238;-79
2021/01/20 06:38:59;;;;;;;2.03;1.23;;;4.20;1.00;;;;;;5020654;28;20687;-79
2021/01/20 06:41:37;;;;;;;1.15;1.00;;;4.20;1.00;;;;;;5016216;28;20223;-78
2021/01/20 06:44:08;;;;;;;1.35;1.25;;;4.30;1.00;;;;;;5015629;28;20216;-78
2021/01/20 06:46:35;;;;;;;1.30;1.20;;;4.40;1.00;;;;;;5017410;28;20843;-78
2021/01/20 06:49:12;;;;;;;1.60;1.15;;;4.30;1.00;;;;;;5017229;28;20294;-77
2021/01/20 06:51:42;;;;;;;1.90;1.25;;;4.50;1.00;;;;;;5021246;28;20687;-79
2021/01/20 06:54:14;;;;;;;1.65;1.33;;;4.40;1.00;;;;;;5027606;28;20600;-79
2021/01/20 06:56:45;;;;;;;2.30;1.38;;;4.40;1.00;;;;;;5022221;28;20714;-78
2021/01/20 06:59:21;;;;;;;2.03;1.23;;;4.40;1.00;;;;;;5025652;28;20387;-76
2021/01/20 07:02:11;;;;;;;1.27;1.17;;;4.50;1.00;;;;;;5022719;28;20584;-75
2021/01/20 07:04:56;;;;;;;1.15;1.00;;;4.60;99.90;;;;;;5023020;28;20221;-75
2021/01/20 07:08:02;;;;;;;1.33;1.00;;;4.90;99.90;;;;;;5028698;28;20245;-77
2021/01/20 07:11:05;;;;;;;1.20;1.10;;;5.00;1.00;;;;;;5025094;28;20221;-76
2021/01/20 07:13:38;;;;;;;1.40;1.15;;;5.00;1.00;;;;;;5018988;28;20212;-75
2021/01/20 07:16:10;;;;;;;1.40;1.10;;;5.10;1.00;;;;;;5021486;28;20755;-73
2021/01/20 07:18:40;;;;;;;1.50;0.95;;;5.10;1.00;;;;;;5023350;28;20478;-74
2021/01/20 07:21:08;;;;;;;1.15;1.00;;;5.30;1.00;;;;;;5022955;28;20221;-73
2021/01/20 07:23:39;;;;;;;1.30;1.08;;;5.30;1.00;;;;;;5025148;28;20214;-73
2021/01/20 07:26:06;;;;;;;1.33;1.23;;;5.30;1.00;;;;;;5024494;28;20331;-74
2021/01/20 07:28:36;;;;;;;1.42;1.13;;;5.30;1.00;;;;;;5021826;28;20723;-74
2021/01/20 07:31:10;;;;;;;1.10;1.00;;;5.30;1.00;;;;;;5024058;28;20200;-74
2021/01/20 07:33:39;;;;;;;1.70;1.10;;;5.30;1.00;;;;;;5028870;28;20483;-74
2021/01/20 07:36:15;;;;;;;1.25;1.15;;;5.20;1.00;;;;;;5024366;28;20500;-74
2021/01/20 07:38:45;;;;;;;1.30;1.20;;;5.40;1.00;;;;;;5015431;28;20262;-73
2021/01/20 07:41:14;;;;;;;1.30;1.20;;;5.50;1.00;;;;;;5021824;28;20540;-74
2021/01/20 07:43:42;;;;;;;1.20;1.10;;;5.50;1.00;;;;;;5025483;28;20975;-74
2021/01/20 07:46:14;;;;;;;1.20;1.10;;;5.40;1.00;;;;;;5027707;28;20590;-74
2021/01/20 07:48:42;;;;;;;1.80;1.55;;;5.30;1.00;;;;;;5025192;28;20299;-74
2021/01/20 07:51:21;;;;;;;1.95;1.60;;;5.20;1.00;;;;;;5026637;28;20650;-75
2021/01/20 07:54:01;;;;;;;4.10;1.70;;;5.10;1.00;;;;;;5014840;28;20667;-73
2021/01/20 07:56:29;;;;;;;3.45;1.73;;;5.10;1.00;;;;;;5025283;28;20573;-74
2021/01/20 07:59:14;;;;;;;4.03;2.28;;;5.00;1.00;;;;;;5022848;28;20627;-74
2021/01/20 08:01:42;;;;;;;2.53;1.90;;;4.90;1.00;;;;;;5015615;28;20207;-76
2021/01/20 08:04:20;;;;;;;1.40;1.30;;;4.90;1.00;;;;;;5025950;28;20479;-75
2021/01/20 08:06:48;;;;;;;1.57;1.47;;;4.90;1.00;;;;;;5016986;28;21091;-77
2021/01/20 08:09:15;;;;;;;2.60;1.90;;;4.90;1.00;;;;;;5025825;28;20565;-73
2021/01/20 08:11:45;;;;;;;2.47;1.60;;;4.90;1.00;;;;;;5025282;28;20515;-74
2021/01/20 08:14:15;;;;;;;2.03;1.60;;;4.90;1.00;;;;;;5027248;28;20499;-75
2021/01/20 08:16:42;;;;;;;3.30;1.77;;;4.90;1.00;;;;;;5021014;28;20503;-74
2021/01/20 08:19:19;;;;;;;2.97;2.00;;;4.90;1.00;;;;;;5022930;28;20533;-74
2021/01/20 08:21:47;;;;;;;1.70;1.53;;;5.00;1.00;;;;;;5014318;28;20501;-74
2021/01/20 08:24:20;;;;;;;1.83;1.50;;;4.90;1.00;;;;;;5017645;28;20537;-73
2021/01/20 08:26:54;;;;;;;1.50;1.40;;;4.90;1.00;;;;;;5023199;28;20843;-75
2021/01/20 08:29:23;;;;;;;2.03;1.83;;;5.00;1.00;;;;;;5017730;28;20895;-75
2021/01/20 08:32:05;;;;;;;1.87;1.60;;;4.90;1.00;;;;;;5023643;28;20704;-75
2021/01/20 08:34:35;;;;;;;2.90;2.13;;;5.00;1.00;;;;;;5024527;28;20469;-75
2021/01/20 08:37:08;;;;;;;3.03;2.50;;;5.00;1.00;;;;;;5022660;28;20762;-73
2021/01/20 08:39:37;;;;;;;3.13;2.80;;;5.10;1.00;;;;;;5020469;28;20506;-74
2021/01/20 08:42:22;;;;;;;2.00;1.90;;;5.20;1.00;;;;;;5019138;28;21107;-75
2021/01/20 08:45:29;;;;;;;4.37;2.47;;;5.00;1.00;;;;;;5018750;28;20756;-74
2021/01/20 08:47:59;;;;;;;2.10;1.90;;;4.90;1.00;;;;;;4993144;28;20600;-72
2021/01/20 08:50:51;;;;;;;2.13;2.00;;;5.10;1.00;;;;;;5020798;28;20466;-72
2021/01/20 08:53:27;;;;;;;2.70;2.00;;;5.00;1.00;;;;;;5015026;28;20987;-72
2021/01/20 08:55:55;;;;;;;2.27;1.73;;;4.90;1.00;;;;;;5024278;28;20498;-74
2021/01/20 08:58:27;;;;;;;2.07;1.80;;;4.90;1.00;;;;;;5023570;28;20469;-72
2021/01/20 09:01:00;;;;;;;1.83;1.73;;;5.10;1.00;;;;;;5022755;28;20479;-73
2021/01/20 09:03:29;;;;;;;1.87;1.77;;;5.00;1.00;;;;;;5023298;28;20502;-73
2021/01/20 09:05:58;;;;;;;3.00;2.20;;;5.00;1.00;;;;;;5022256;28;20937;-75
2021/01/20 09:08:27;;;;;;;2.70;1.93;;;5.10;1.00;;;;;;5021560;28;20494;-72
2021/01/20 09:10:55;;;;;;;2.30;1.93;;;5.20;1.00;;;;;;5016077;28;20574;-74
2021/01/20 09:13:24;;;;;;;3.63;2.10;;;5.40;1.00;;;;;;5014556;28;20500;-72
2021/01/20 09:15:54;;;;;;;3.80;2.93;;;5.50;1.00;;;;;;5013089;28;20497;-72
2021/01/20 09:18:23;;;;;;;6.90;2.37;;;5.50;1.00;;;;;;5018009;28;20511;-74
2021/01/20 09:20:51;;;;;;;2.17;1.97;;;5.70;1.00;;;;;;5011130;28;21381;-75
2021/01/20 09:23:19;;;;;;;2.93;1.90;;;5.80;1.00;;;;;;5014186;28;20609;-73
2021/01/20 09:25:47;;;;;;;2.70;2.50;;;6.00;1.00;;;;;;5011670;28;20569;-72
2021/01/20 09:28:15;;;;;;;2.73;2.13;;;5.90;1.00;;;;;;5019597;28;20871;-72
2021/01/20 09:30:42;;;;;;;4.07;2.40;;;5.70;1.00;;;;;;5021176;28;20965;-73
2021/01/20 09:33:10;;;;;;;3.92;2.80;;;5.70;1.00;;;;;;5020053;28;20460;-73
2021/01/20 09:35:39;;;;;;;3.10;2.53;;;5.70;1.00;;;;;;5015428;28;20268;-74
2021/01/20 09:38:07;;;;;;;4.03;2.50;;;5.50;1.00;;;;;;5021519;28;20939;-73
2021/01/20 09:40:35;;;;;;;4.50;2.67;;;5.70;1.00;;;;;;5024720;28;20593;-74
2021/01/20 09:43:03;;;;;;;3.87;3.17;;;6.00;1.00;;;;;;5028114;28;20685;-73
2021/01/20 09:45:31;;;;;;;4.90;3.83;;;6.10;99.90;;;;;;5019032;28;21044;-73
2021/01/20 09:48:00;;;;;;;5.13;3.50;;;6.20;99.90;;;;;;5023087;28;20564;-72
2021/01/20 09:50:32;;;;;;;3.53;3.23;;;6.30;99.90;;;;;;5023776;28;20483;-73
2021/01/20 09:53:01;;;;;;;4.10;3.60;;;6.40;99.90;;;;;;5018590;28;20565;-73
2021/01/20 09:55:29;;;;;;;5.53;3.23;;;6.40;99.90;;;;;;5020448;28;20504;-74
2021/01/20 09:57:56;;;;;;;3.80;2.70;;;6.60;99.90;;;;;;5020126;28;20458;-73
2021/01/20 10:00:27;;;;;;;4.50;2.03;;;6.50;99.90;;;;;;5020549;28;20474;-74
2021/01/20 10:02:55;;;;;;;2.80;2.30;;;6.40;99.90;;;;;;5027030;28;20492;-72
2021/01/20 10:05:22;;;;;;;3.17;1.93;;;6.40;99.90;;;;;;5024752;28;20569;-72
2021/01/20 10:07:50;;;;;;;2.37;2.17;;;6.50;99.90;;;;;;5020525;28;21070;-74
2021/01/20 10:10:18;;;;;;;3.67;2.37;;;6.60;99.90;;;;;;5017892;28;20823;-75
2021/01/20 10:12:45;;;;;;;2.43;2.20;;;6.70;99.90;;;;;;5025116;28;20485;-75
2021/01/20 10:15:13;;;;;;;4.17;2.30;;;6.70;99.90;;;;;;5023935;28;20511;-74
2021/01/20 10:17:40;;;;;;;2.70;2.10;;;6.70;99.90;;;;;;5021241;28;20902;-73
2021/01/20 10:20:08;;;;;;;3.07;2.20;;;6.80;99.90;;;;;;5023426;28;20509;-76
2021/01/20 10:22:36;;;;;;;2.73;2.50;;;6.90;99.90;;;;;;5020845;28;20923;-74
2021/01/20 10:25:04;;;;;;;2.97;2.40;;;7.00;99.90;;;;;;5026491;28;20503;-74
2021/01/20 10:27:33;;;;;;;2.40;2.00;;;7.00;99.90;;;;;;5024977;28;20913;-74
2021/01/20 10:30:01;;;;;;;2.70;2.10;;;7.20;99.90;;;;;;5023247;28;20691;-74
2021/01/20 10:32:28;;;;;;;3.00;2.37;;;7.40;99.90;;;;;;5036334;28;20614;-75
2021/01/20 10:34:57;;;;;;;2.80;2.43;;;7.50;99.90;;;;;;5024678;28;21040;-74
2021/01/20 10:37:24;;;;;;;3.00;2.40;;;7.60;99.90;;;;;;5029160;28;20474;-74
2021/01/20 10:39:51;;;;;;;2.40;2.20;;;7.70;99.90;;;;;;5023095;28;20492;-73
2021/01/20 10:42:18;;;;;;;2.53;2.30;;;7.70;99.90;;;;;;5019224;28;20572;-74
2021/01/20 10:44:47;;;;;;;3.50;2.80;;;7.90;99.90;;;;;;5039672;28;20895;-75
2021/01/20 10:47:14;;;;;;;4.47;3.13;;;7.90;99.90;;;;;;5020710;28;20777;-74
2021/01/20 10:49:42;;;;;;;2.30;2.10;;;7.90;99.90;;;;;;5024678;28;20905;-74
2021/01/20 10:52:09;;;;;;;4.47;1.80;;;7.80;99.90;;;;;;5021495;28;20482;-75
2021/01/20 10:54:36;;;;;;;1.80;1.60;;;7.80;99.90;;;;;;5013076;28;20489;-76
2021/01/20 10:57:05;;;;;;;2.37;2.07;;;7.90;99.90;;;;;;5017159;28;20488;-73
2021/01/20 10:59:41;;;;;;;3.03;1.87;;;7.70;99.90;;;;;;5021254;28;20861;-75
2021/01/20 11:02:09;;;;;;;2.70;2.00;;;7.60;99.90;;;;;;5021515;28;20544;-74
2021/01/20 11:04:37;;;;;;;2.83;2.37;;;7.70;99.90;;;;;;5013914;28;20468;-74
2021/01/20 11:07:04;;;;;;;3.20;2.83;;;7.60;99.90;;;;;;5017138;28;21020;-72
2021/01/20 11:09:31;;;;;;;3.20;2.63;;;7.40;99.90;;;;;;5019880;28;20489;-73
2021/01/20 11:11:59;;;;;;;3.27;2.30;;;7.50;99.90;;;;;;5011643;28;20571;-72
2021/01/20 11:14:26;;;;;;;2.53;1.90;;;7.40;99.90;;;;;;5012291;28;20474;-72
2021/01/20 11:16:54;;;;;;;2.33;2.13;;;7.30;99.90;;;;;;5009911;28;20485;-73
2021/01/20 11:19:22;;;;;;;2.90;2.60;;;7.20;99.90;;;;;;5018121;28;20491;-73
2021/01/20 11:21:54;;;;;;;3.20;2.40;;;7.20;99.90;;;;;;5020502;28;20480;-73
2021/01/20 11:24:22;;;;;;;4.50;3.40;;;7.40;99.90;;;;;;5022476;28;20486;-76
2021/01/20 11:26:50;;;;;;;3.10;2.27;;;7.20;99.90;;;;;;5016818;28;20855;-76
2021/01/20 11:29:17;;;;;;;2.20;2.10;;;7.00;99.90;;;;;;5020836;28;20997;-74
2021/01/20 11:31:45;;;;;;;3.10;2.80;;;7.00;99.90;;;;;;5021964;28;21020;-76
2021/01/20 11:34:12;;;;;;;3.07;2.87;;;6.80;99.90;;;;;;5021887;28;20485;-76
2021/01/20 11:36:41;;;;;;;4.50;3.27;;;6.90;99.90;;;;;;5019239;28;20599;-76
2021/01/20 11:39:08;;;;;;;3.37;2.57;;;6.80;99.90;;;;;;5019820;28;20882;-74
2021/01/20 11:41:35;;;;;;;3.77;3.33;;;6.80;99.90;;;;;;5043159;28;20469;-75
2021/01/20 11:44:03;;;;;;;3.20;2.90;;;7.00;99.90;;;;;;5021542;28;20494;-77
2021/01/20 11:46:30;;;;;;;5.30;4.00;;;7.00;99.90;;;;;;5018783;28;21187;-77
2021/01/20 11:49:06;;;;;;;2.90;2.40;;;6.90;99.90;;;;;;5016147;28;20502;-78
2021/01/20 11:51:33;;;;;;;3.40;2.10;;;7.00;99.90;;;;;;5015073;28;20464;-77
2021/01/20 11:54:01;;;;;;;4.93;2.50;;;6.70;99.90;;;;;;5012929;28;20919;-76
2021/01/20 11:56:28;;;;;;;4.50;3.13;;;6.60;99.90;;;;;;5013152;28;20498;-77
2021/01/20 11:58:56;;;;;;;3.00;2.30;;;6.50;99.90;;;;;;5011639;28;20483;-77
2021/01/20 12:01:23;;;;;;;2.40;2.20;;;6.50;99.90;;;;;;5014439;28;20565;-78
2021/01/20 12:03:50;;;;;;;3.00;2.77;;;6.40;99.90;;;;;;5014871;28;20498;-77
2021/01/20 12:06:18;;;;;;;2.70;2.40;;;6.50;99.90;;;;;;5016770;28;21166;-77
2021/01/20 12:08:45;;;;;;;2.40;2.20;;;6.50;99.90;;;;;;5014006;28;21282;-77
2021/01/20 12:11:13;;;;;;;3.83;3.10;;;6.60;99.90;;;;;;5029686;28;20478;-78
2021/01/20 12:13:40;;;;;;;2.93;2.40;;;6.60;99.90;;;;;;5012395;28;20699;-77
2021/01/20 12:16:08;;;;;;;3.60;3.00;;;6.50;99.90;;;;;;5016738;28;20612;-76
2021/01/20 12:18:36;;;;;;;3.07;2.60;;;6.50;99.90;;;;;;5015857;28;20823;-77
2021/01/20 12:21:04;;;;;;;4.30;2.53;;;6.50;99.90;;;;;;5029917;28;20539;-77
2021/01/20 12:23:32;;;;;;;3.77;3.20;;;6.40;99.90;;;;;;5014540;28;20492;-76
2021/01/20 12:25:59;;;;;;;3.50;2.50;;;6.40;99.90;;;;;;5009463;28;20497;-77
2021/01/20 12:28:27;;;;;;;3.97;2.50;;;6.40;99.90;;;;;;5011650;28;20494;-78
2021/01/20 12:30:54;;;;;;;2.47;2.27;;;6.40;99.90;;;;;;5021509;28;21022;-74
2021/01/20 12:33:21;;;;;;;2.80;2.57;;;6.60;1.00;;;;;;5025472;28;20905;-76
2021/01/20 12:35:49;;;;;;;3.80;2.90;;;6.50;99.90;;;;;;5021793;28;20569;-76
2021/01/20 12:38:16;;;;;;;2.33;2.17;;;6.50;99.90;;;;;;5022066;28;20830;-76
2021/01/20 12:40:43;;;;;;;4.37;2.83;;;6.40;99.90;;;;;;5017317;28;20478;-76
2021/01/20 12:43:11;;;;;;;4.70;2.27;;;6.40;1.00;;;;;;5024869;28;20489;-77
2021/01/20 12:45:39;;;;;;;3.53;2.27;;;6.50;1.00;;;;;;5021577;28;20504;-75
2021/01/20 12:48:08;;;;;;;3.23;2.30;;;6.50;1.00;;;;;;5017310;28;20513;-76
2021/01/20 12:50:36;;;;;;;3.67;2.13;;;6.50;1.00;;;;;;5027692;28;20465;-74
2021/01/20 12:53:03;;;;;;;2.50;2.17;;;6.60;99.90;;;;;;5025116;28;20457;-75
2021/01/20 12:55:30;;;;;;;4.33;2.77;;;6.60;99.90;;;;;;5016703;28;20498;-75
2021/01/20 12:57:57;;;;;;;2.67;2.47;;;6.70;99.90;;;;;;5021693;28;20460;-75
2021/01/20 13:00:25;;;;;;;3.00;2.70;;;6.90;99.90;;;;;;5015558;28;20478;-76
2021/01/20 13:02:53;;;;;;;4.60;2.70;;;6.90;99.90;;;;;;5018394;28;20478;-76
2021/01/20 13:05:21;;;;;;;2.87;2.10;;;6.90;99.90;;;;;;5023060;28;20531;-76
2021/01/20 13:07:49;;;;;;;2.90;2.60;;;7.00;99.90;;;;;;5024965;28;20503;-74
2021/01/20 13:10:16;;;;;;;2.40;2.20;;;7.20;99.90;;;;;;5024178;28;20471;-75
2021/01/20 13:12:43;;;;;;;5.03;2.20;;;7.30;99.90;;;;;;5022419;28;20586;-76
2021/01/20 13:15:16;;;;;;;3.80;2.40;;;7.30;99.90;;;;;;5024991;28;20490;-75